createdAt,value
2022-07-29T00:00:02.637Z,79.89
2022-07-29T00:06:35.113Z,79.97
2022-07-29T00:12:43.202Z,79.64
2022-07-29T00:18:15.326Z,79.32
2022-07-29T00:24:29.003Z,80.08
2022-07-29T00:29:43.331Z,80.58
2022-07-29T00:36:05.559Z,80.61
2022-07-29T00:42:02.599Z,81.12
2022-07-29T00:47:27.383Z,80.54
2022-07-29T00:53:38.594Z,80.68
2022-07-29T00:59:06.575Z,80.50
2022-07-29T01:05:14.860Z,80.25
2022-07-29T01:10:40.547Z,80.47
2022-07-29T01:16:10.661Z,80.78
2022-07-29T01:22:29.221Z,80.58
2022-07-29T01:28:36.613Z,80.50
2022-07-29T01:34:44.513Z,80.42
2022-07-29T01:40:14.307Z,80.44
2022-07-29T01:46:01.873Z,80.93
2022-07-29T01:51:28.297Z,81.17
2022-07-29T01:57:26.243Z,80.57
2022-07-29T02:03:19.293Z,81.15
2022-07-29T02:09:45.881Z,83.14
2022-07-29T02:15:52.023Z,84.20
2022-07-29T02:21:30.247Z,83.85
2022-07-29T02:27:35.437Z,83.38
2022-07-29T02:33:04.000Z,82.85
2022-07-29T02:38:56.689Z,82.56
2022-07-29T02:44:25.921Z,82.01
2022-07-29T02:50:36.971Z,81.92
2022-07-29T02:56:54.026Z,83.20
2022-07-29T03:10:26.226Z,83.36
2022-07-29T03:15:55.435Z,83.21
2022-07-29T03:27:38.485Z,83.92
2022-07-29T03:33:41.487Z,84.32
2022-07-29T03:39:19.334Z,84.88
2022-07-29T03:44:28.138Z,85.18
2022-07-29T03:49:40.418Z,84.85
2022-07-29T03:54:59.442Z,84.60
2022-07-29T04:00:26.673Z,84.13
2022-07-29T04:06:43.893Z,83.72
2022-07-29T04:12:40.533Z,83.71
2022-07-29T04:18:26.584Z,83.79
2022-07-29T04:23:34.622Z,83.88
2022-07-29T04:28:58.001Z,83.40
2022-07-29T04:34:11.596Z,83.37
2022-07-29T04:39:27.261Z,83.65
2022-07-29T04:44:37.232Z,82.92
2022-07-29T04:49:43.568Z,81.74
2022-07-29T04:55:50.515Z,80.67
2022-07-29T05:01:09.042Z,79.19
2022-07-29T05:06:25.660Z,78.21
2022-07-29T05:11:31.992Z,76.79
2022-07-29T05:16:48.897Z,76.46
2022-07-29T05:21:55.499Z,75.82
2022-07-29T05:26:59.259Z,75.32
2022-07-29T05:32:05.263Z,73.63
2022-07-29T05:37:21.403Z,73.25
2022-07-29T05:42:30.336Z,72.64
2022-07-29T05:47:36.318Z,70.44
2022-07-29T05:52:42.477Z,69.11
2022-07-29T05:57:56.123Z,68.14
2022-07-29T06:03:19.809Z,66.18
2022-07-29T06:08:23.361Z,65.09
2022-07-29T06:13:26.572Z,61.31
2022-07-29T06:18:35.399Z,61.74
2022-07-29T06:23:40.582Z,61.79
2022-07-29T06:28:43.940Z,60.22
2022-07-29T06:33:49.677Z,59.53
2022-07-29T06:38:57.983Z,59.16
2022-07-29T06:44:01.408Z,58.40
2022-07-29T06:49:05.628Z,58.07
2022-07-29T06:54:08.958Z,57.76
2022-07-29T06:59:13.699Z,56.17
2022-07-29T07:04:30.093Z,55.84
2022-07-29T07:09:40.641Z,55.57
2022-07-29T07:14:47.701Z,53.68
2022-07-29T07:20:05.459Z,53.17
2022-07-29T07:25:11.902Z,50.63
2022-07-29T07:30:15.783Z,50.73
2022-07-29T07:35:19.454Z,48.73
2022-07-29T07:40:25.280Z,46.92
2022-07-29T07:45:33.678Z,49.24
2022-07-29T07:50:38.095Z,47.79
2022-07-29T08:01:07.237Z,47.56
2022-07-29T08:06:12.946Z,47.71
2022-07-29T08:11:16.670Z,46.63
2022-07-29T08:16:20.098Z,45.54
2022-07-29T08:21:27.011Z,45.58
2022-07-29T08:26:33.373Z,45.04
2022-07-29T08:31:38.411Z,45.30
2022-07-29T08:36:41.888Z,45.58
2022-07-29T08:41:57.362Z,45.06
2022-07-29T08:47:06.458Z,45.65
2022-07-29T08:52:12.825Z,45.81
2022-07-29T08:57:51.112Z,45.92
2022-07-29T09:03:00.401Z,45.59
2022-07-29T09:08:06.441Z,45.13
2022-07-29T09:13:12.454Z,45.51
2022-07-29T09:18:48.276Z,45.65
2022-07-29T09:24:46.708Z,47.24
2022-07-29T09:30:13.646Z,48.15
2022-07-29T09:35:57.183Z,47.83
2022-07-29T09:41:11.327Z,47.31
2022-07-29T09:46:20.359Z,47.72
2022-07-29T09:51:38.316Z,47.38
2022-07-29T09:56:45.154Z,46.47
2022-07-29T10:01:51.784Z,44.83
2022-07-29T10:07:05.360Z,43.37
2022-07-29T10:12:16.765Z,43.22
2022-07-29T10:17:22.958Z,43.56
2022-07-29T10:22:51.426Z,43.33
2022-07-29T10:27:55.019Z,43.47
2022-07-29T10:33:32.320Z,43.08
2022-07-29T10:39:03.273Z,41.82
2022-07-29T10:44:17.435Z,42.71
2022-07-29T10:49:33.277Z,41.67
2022-07-29T10:54:37.237Z,41.35
2022-07-29T10:59:53.237Z,40.40
2022-07-29T11:04:56.702Z,40.52
2022-07-29T11:16:06.569Z,41.63
2022-07-29T11:21:53.931Z,40.93
2022-07-29T11:27:28.561Z,38.91
2022-07-29T11:32:59.794Z,39.57
2022-07-29T11:38:31.631Z,41.65
2022-07-29T11:43:56.123Z,41.59
2022-07-29T11:49:01.280Z,42.94
2022-07-29T11:54:06.522Z,42.85
2022-07-29T11:59:32.982Z,42.58
2022-07-29T12:05:02.066Z,42.42
2022-07-29T12:10:31.922Z,40.96
2022-07-29T12:16:00.109Z,40.47
2022-07-29T12:21:09.623Z,40.49
2022-07-29T12:26:25.342Z,41.51
2022-07-29T12:31:41.960Z,42.12
2022-07-29T12:36:48.401Z,41.83
2022-07-29T12:42:04.802Z,41.48
2022-07-29T12:47:10.812Z,40.49
2022-07-29T12:52:33.927Z,39.77
2022-07-29T12:57:48.855Z,38.89
2022-07-29T13:03:02.466Z,38.88
2022-07-29T13:08:21.952Z,39.65
2022-07-29T13:13:31.081Z,39.72
2022-07-29T13:18:37.557Z,40.13
2022-07-29T13:23:44.131Z,40.97
2022-07-29T13:28:47.443Z,42.01
2022-07-29T13:33:51.007Z,41.55
2022-07-29T13:39:02.126Z,41.90
2022-07-29T13:44:05.459Z,41.17
2022-07-29T13:49:08.993Z,41.35
2022-07-29T13:54:12.369Z,40.03
2022-07-29T13:59:20.045Z,39.06
2022-07-29T14:04:24.493Z,39.47
2022-07-29T14:09:28.297Z,39.93
2022-07-29T14:14:33.545Z,40.74
2022-07-29T14:19:39.098Z,41.38
2022-07-29T14:24:42.647Z,41.44
2022-07-29T14:29:47.079Z,41.19
2022-07-29T14:34:53.494Z,41.50
2022-07-29T14:40:00.840Z,40.58
2022-07-29T14:45:09.228Z,39.62
2022-07-29T14:50:13.307Z,39.05
2022-07-29T14:55:20.127Z,39.12
2022-07-29T15:00:23.798Z,38.23
2022-07-29T15:05:27.939Z,39.59
2022-07-29T15:10:40.156Z,39.18
2022-07-29T15:15:44.164Z,39.02
2022-07-29T15:20:47.783Z,39.42
2022-07-29T15:25:51.105Z,39.15
2022-07-29T15:30:57.427Z,39.69
2022-07-29T15:36:00.903Z,39.73
2022-07-29T15:41:04.240Z,40.08
2022-07-29T15:46:26.304Z,40.59
2022-07-29T15:51:29.686Z,40.47
2022-07-29T15:56:36.635Z,40.90
2022-07-29T16:01:42.500Z,39.08
2022-07-29T16:06:48.010Z,39.28
2022-07-29T16:11:53.785Z,39.37
2022-07-29T16:16:57.371Z,39.02
2022-07-29T16:22:00.951Z,38.95
2022-07-29T16:27:04.571Z,39.38
2022-07-29T16:32:10.328Z,38.79
2022-07-29T16:37:16.369Z,39.21
2022-07-29T16:42:36.995Z,40.26
2022-07-29T16:47:46.427Z,40.60
2022-07-29T16:52:49.936Z,40.29
2022-07-29T16:57:53.179Z,40.55
2022-07-29T17:02:56.666Z,41.22
2022-07-29T17:07:59.824Z,41.41
2022-07-29T17:13:02.943Z,40.45
2022-07-29T17:18:12.720Z,39.89
2022-07-29T17:23:16.589Z,40.79
2022-07-29T17:28:20.200Z,40.50
2022-07-29T17:33:23.378Z,40.33
2022-07-29T17:38:26.771Z,40.22
2022-07-29T17:43:30.017Z,40.17
2022-07-29T17:48:33.284Z,40.59
2022-07-29T17:53:38.321Z,40.94
2022-07-29T17:58:42.115Z,41.94
2022-07-29T18:03:48.781Z,43.76
2022-07-29T18:08:52.738Z,45.06
2022-07-29T18:13:59.051Z,45.99
2022-07-29T18:19:08.940Z,46.34
2022-07-29T18:24:17.642Z,47.04
2022-07-29T18:29:24.244Z,47.28
2022-07-29T18:34:30.571Z,48.83
2022-07-29T18:39:36.885Z,49.44
2022-07-29T18:44:43.666Z,50.15
2022-07-29T18:49:49.820Z,51.38
2022-07-29T18:54:53.361Z,53.10
2022-07-29T18:59:56.595Z,54.04
2022-07-29T19:05:00.213Z,55.31
2022-07-29T19:10:04.056Z,55.93
2022-07-29T19:15:08.355Z,56.79
2022-07-29T19:20:12.230Z,56.53
2022-07-29T19:25:15.590Z,58.26
2022-07-29T19:30:18.920Z,58.42
2022-07-29T19:35:24.834Z,62.12
2022-07-29T19:40:30.266Z,62.87
2022-07-29T19:45:34.403Z,63.39
2022-07-29T19:50:37.721Z,63.46
2022-07-29T19:55:43.227Z,63.49
2022-07-29T20:00:50.414Z,63.85
2022-07-29T20:05:54.511Z,64.42
2022-07-29T20:10:57.926Z,64.57
2022-07-29T20:16:05.568Z,64.90
2022-07-29T20:21:09.148Z,65.25
2022-07-29T20:26:12.903Z,65.50
2022-07-29T20:31:17.081Z,65.69
2022-07-29T20:36:20.560Z,66.14
2022-07-29T20:41:23.904Z,66.93
2022-07-29T20:46:27.515Z,67.36
2022-07-29T20:51:30.697Z,67.39
2022-07-29T20:56:36.066Z,67.31
2022-07-29T21:01:39.590Z,67.50
2022-07-29T21:06:42.835Z,67.86
2022-07-29T21:11:46.691Z,68.71
2022-07-29T21:16:50.923Z,68.88
2022-07-29T21:21:54.229Z,69.07
2022-07-29T21:27:21.778Z,69.48
2022-07-29T21:32:30.055Z,70.99
2022-07-29T21:37:33.945Z,71.35
2022-07-29T21:42:39.914Z,71.39
2022-07-29T21:47:43.199Z,71.99
2022-07-29T21:52:46.499Z,72.22
2022-07-29T21:57:50.957Z,72.19
2022-07-29T22:02:54.533Z,72.21
2022-07-29T22:07:58.734Z,72.61
2022-07-29T22:13:03.574Z,73.00
